Airfield :
LOGIN :

Register | Disclaimer

   EN    FR    IT 

 










Legend :    VFR   Marginal VFR   IFR   Intensive IFR   Very Intensive IFR
Visi :
Ceiling :
>= 8 km
>= 3000ft
5 to 8 km
1000 to 3000 ft
1500m to 5 km
500 to 1000 ft
800 to 1500m
200 to 500 ft
< 800m
< 200 ft
Symbols :   Thunderstorms  Fog  Heavy snow  Heavy precipitations  Wind > 20 kt
SIGMETs :     Misc.  Thunderstorms  Icing  Turbulence  Mountain Waves  Volcanic Ashes







- Airport Elevation : 791 ft
- IATA code : KRK


EPKK - Krakow-Balice

CURRENT METAR :
  • 200830Z 06005KT 030V100 0200 R25/0400N FG VV001 10/10 Q1018

EXPIRED METARs :
  • 200800Z 10004KT 0150 R25/0350N FG VV001 10/10 Q1018
  • 200730Z 09004KT 0150 R25/0300N FG VV001 10/09 Q1018
  • 200700Z 10005KT 0150 R25/0325N FG VV001 10/10 Q1018
  • 200630Z 05005KT 0250 R25/0500N FG BKN001 OVC002 10/10 Q1018
  • 200600Z 06003KT 0150 R25/0325N FG BKN001 10/10 Q1018

TAF TAF EPKK
Valid from the 20 at 06:00 until the 21 at 06:00 UTC


200530Z 2006/2106 05004KT 0100 FG OVC001
BECMG 2006/2009 3000 BR BKN005
TEMPO 2010/2015 7000 BKN012
BECMG 2018/2021 0500 FG BKN002
TEMPO 2022/2106 0100 FG OVC001
No reported NOTAMs for that airfield.



MET'MAP, your aeronautical weather chart ! - Copyright ORBIFLY December 2007 - Disclaimer

ORBIFLY MET'MAP TEAM :

Programming & Development : Alexandra Zaïnal
Concept & Development : Baudouin d'Aumeries
Co-Development & Prog : Marc-Olivier Méhu
Technical & hardware support : Manuel Goepfert

Contact : metmap@orbifly.com




SOURCES & CREDITS :

   NOAA